sensor_id;sensor_type;location;lat;lon;timestamp;P1;durP1;ratioP1;P2;durP2;ratioP2
58240;SDS011;45058;55.772;38.224;2023-05-20T00:01:04;9.60;;;4.93;;
58240;SDS011;45058;55.772;38.224;2023-05-20T00:05:55;9.03;;;4.53;;
58240;SDS011;45058;55.772;38.224;2023-05-20T00:08:21;9.90;;;4.38;;
58240;SDS011;45058;55.772;38.224;2023-05-20T00:10:47;8.00;;;4.10;;
58240;SDS011;45058;55.772;38.224;2023-05-20T00:13:13;12.43;;;5.32;;
58240;SDS011;45058;55.772;38.224;2023-05-20T00:15:39;9.25;;;4.47;;
58240;SDS011;45058;55.772;38.224;2023-05-20T00:18:06;10.25;;;4.82;;
58240;SDS011;45058;55.772;38.224;2023-05-20T00:20:32;8.95;;;5.15;;
58240;SDS011;45058;55.772;38.224;2023-05-20T00:22:58;11.40;;;4.97;;
58240;SDS011;45058;55.772;38.224;2023-05-20T05:48:29;8.38;;;1.00;;
58240;SDS011;45058;55.772;38.224;2023-05-20T05:50:56;16.52;;;1.90;;
58240;SDS011;45058;55.772;38.224;2023-05-20T05:53:24;7.55;;;1.23;;
58240;SDS011;45058;55.772;38.224;2023-05-20T05:55:51;2.50;;;0.85;;
58240;SDS011;45058;55.772;38.224;2023-05-20T05:58:17;7.57;;;0.90;;
58240;SDS011;45058;55.772;38.224;2023-05-20T06:03:29;25.67;;;1.83;;
58240;SDS011;45058;55.772;38.224;2023-05-20T06:05:55;1.75;;;0.68;;
58240;SDS011;45058;55.772;38.224;2023-05-20T06:08:22;3.38;;;0.90;;
58240;SDS011;45058;55.772;38.224;2023-05-20T06:10:49;9.52;;;1.42;;
58240;SDS011;45058;55.772;38.224;2023-05-20T06:13:15;2.80;;;0.88;;
58240;SDS011;45058;55.772;38.224;2023-05-20T06:15:42;3.25;;;0.90;;
58240;SDS011;45058;55.772;38.224;2023-05-20T06:18:11;9.93;;;0.90;;
58240;SDS011;45058;55.772;38.224;2023-05-20T06:20:38;3.78;;;0.88;;
58240;SDS011;45058;55.772;38.224;2023-05-20T06:23:04;1.45;;;0.70;;
58240;SDS011;45058;55.772;38.224;2023-05-20T06:25:41;1.70;;;0.90;;
58240;SDS011;45058;55.772;38.224;2023-05-20T06:28:08;6.22;;;0.82;;
58240;SDS011;45058;55.772;38.224;2023-05-20T06:30:35;1.95;;;0.70;;
58240;SDS011;45058;55.772;38.224;2023-05-20T06:33:02;3.13;;;0.73;;
58240;SDS011;45058;55.772;38.224;2023-05-20T06:35:28;11.60;;;1.38;;
58240;SDS011;45058;55.772;38.224;2023-05-20T06:37:54;5.35;;;1.17;;
58240;SDS011;45058;55.772;38.224;2023-05-20T06:40:21;2.67;;;0.98;;
58240;SDS011;45058;55.772;38.224;2023-05-20T06:42:48;2.72;;;1.00;;
58240;SDS011;45058;55.772;38.224;2023-05-20T06:45:14;2.95;;;0.93;;
58240;SDS011;45058;55.772;38.224;2023-05-20T06:47:42;1.73;;;0.80;;
58240;SDS011;45058;55.772;38.224;2023-05-20T06:50:09;5.47;;;0.90;;
58240;SDS011;45058;55.772;38.224;2023-05-20T06:52:36;7.95;;;1.23;;
58240;SDS011;45058;55.772;38.224;2023-05-20T06:55:03;3.00;;;0.60;;
58240;SDS011;45058;55.772;38.224;2023-05-20T06:57:30;3.13;;;0.90;;
58240;SDS011;45058;55.772;38.224;2023-05-20T06:59:57;7.63;;;0.77;;
58240;SDS011;45058;55.772;38.224;2023-05-20T07:02:24;2.45;;;1.05;;
58240;SDS011;45058;55.772;38.224;2023-05-20T07:04:50;5.78;;;0.85;;
58240;SDS011;45058;55.772;38.224;2023-05-20T07:07:17;3.22;;;0.80;;
58240;SDS011;45058;55.772;38.224;2023-05-20T07:09:45;5.18;;;0.93;;
58240;SDS011;45058;55.772;38.224;2023-05-20T07:12:12;11.43;;;0.70;;
58240;SDS011;45058;55.772;38.224;2023-05-20T07:14:39;8.48;;;0.90;;
58240;SDS011;45058;55.772;38.224;2023-05-20T07:17:13;7.47;;;1.07;;
58240;SDS011;45058;55.772;38.224;2023-05-20T07:19:42;6.95;;;1.00;;
58240;SDS011;45058;55.772;38.224;2023-05-20T07:22:09;4.30;;;0.82;;
58240;SDS011;45058;55.772;38.224;2023-05-20T07:25:05;7.55;;;0.82;;
58240;SDS011;45058;55.772;38.224;2023-05-20T07:27:35;7.95;;;1.13;;
58240;SDS011;45058;55.772;38.224;2023-05-20T07:30:01;5.38;;;0.98;;
58240;SDS011;45058;55.772;38.224;2023-05-20T07:32:29;3.50;;;1.40;;
58240;SDS011;45058;55.772;38.224;2023-05-20T07:34:55;19.17;;;2.30;;
58240;SDS011;45058;55.772;38.224;2023-05-20T07:37:22;3.13;;;0.75;;
58240;SDS011;45058;55.772;38.224;2023-05-20T07:39:49;1.75;;;1.00;;
58240;SDS011;45058;55.772;38.224;2023-05-20T07:42:15;6.55;;;1.25;;
58240;SDS011;45058;55.772;38.224;2023-05-20T07:44:45;14.13;;;1.27;;
58240;SDS011;45058;55.772;38.224;2023-05-20T07:47:12;10.15;;;0.95;;
58240;SDS011;45058;55.772;38.224;2023-05-20T07:49:38;11.70;;;1.17;;
58240;SDS011;45058;55.772;38.224;2023-05-20T07:52:06;1.70;;;0.82;;
58240;SDS011;45058;55.772;38.224;2023-05-20T07:54:33;2.67;;;0.90;;
58240;SDS011;45058;55.772;38.224;2023-05-20T07:56:59;2.38;;;0.70;;
58240;SDS011;45058;55.772;38.224;2023-05-20T07:59:28;15.55;;;1.27;;
58240;SDS011;45058;55.772;38.224;2023-05-20T08:01:54;6.28;;;1.10;;
58240;SDS011;45058;55.772;38.224;2023-05-20T08:04:21;4.88;;;1.30;;
58240;SDS011;45058;55.772;38.224;2023-05-20T08:06:47;6.20;;;1.00;;
58240;SDS011;45058;55.772;38.224;2023-05-20T08:09:21;18.95;;;1.80;;
58240;SDS011;45058;55.772;38.224;2023-05-20T08:11:51;8.50;;;1.20;;
58240;SDS011;45058;55.772;38.224;2023-05-20T08:14:17;4.40;;;1.55;;
58240;SDS011;45058;55.772;38.224;2023-05-20T08:16:48;2.10;;;0.80;;
58240;SDS011;45058;55.772;38.224;2023-05-20T08:19:14;4.78;;;1.38;;
58240;SDS011;45058;55.772;38.224;2023-05-20T08:21:40;6.00;;;1.15;;
58240;SDS011;45058;55.772;38.224;2023-05-20T08:24:07;3.53;;;0.80;;
58240;SDS011;45058;55.772;38.224;2023-05-20T08:26:35;5.65;;;1.00;;
58240;SDS011;45058;55.772;38.224;2023-05-20T08:29:01;3.78;;;0.90;;
58240;SDS011;45058;55.772;38.224;2023-05-20T08:31:28;19.42;;;1.27;;
58240;SDS011;45058;55.772;38.224;2023-05-20T08:33:54;2.47;;;1.20;;
58240;SDS011;45058;55.772;38.224;2023-05-20T08:36:22;4.38;;;1.20;;
58240;SDS011;45058;55.772;38.224;2023-05-20T08:38:48;12.73;;;1.67;;
58240;SDS011;45058;55.772;38.224;2023-05-20T08:41:15;9.32;;;1.00;;
58240;SDS011;45058;55.772;38.224;2023-05-20T08:43:43;3.03;;;1.00;;
58240;SDS011;45058;55.772;38.224;2023-05-20T08:46:10;5.65;;;1.25;;
58240;SDS011;45058;55.772;38.224;2023-05-20T08:48:37;9.23;;;0.95;;
58240;SDS011;45058;55.772;38.224;2023-05-20T08:51:05;8.30;;;0.70;;
58240;SDS011;45058;55.772;38.224;2023-05-20T08:53:34;5.03;;;1.80;;
58240;SDS011;45058;55.772;38.224;2023-05-20T08:56:00;2.55;;;1.02;;
58240;SDS011;45058;55.772;38.224;2023-05-20T08:58:29;4.53;;;0.90;;
58240;SDS011;45058;55.772;38.224;2023-05-20T09:00:56;4.72;;;0.93;;
58240;SDS011;45058;55.772;38.224;2023-05-20T09:03:23;5.75;;;0.90;;
58240;SDS011;45058;55.772;38.224;2023-05-20T09:05:51;4.00;;;1.08;;
58240;SDS011;45058;55.772;38.224;2023-05-20T09:08:19;4.70;;;1.00;;
58240;SDS011;45058;55.772;38.224;2023-05-20T09:10:51;9.70;;;0.98;;
58240;SDS011;45058;55.772;38.224;2023-05-20T09:13:19;8.55;;;1.42;;
58240;SDS011;45058;55.772;38.224;2023-05-20T09:15:47;3.97;;;1.00;;
58240;SDS011;45058;55.772;38.224;2023-05-20T09:18:13;4.80;;;1.10;;
58240;SDS011;45058;55.772;38.224;2023-05-20T09:20:39;7.32;;;1.20;;
58240;SDS011;45058;55.772;38.224;2023-05-20T09:23:06;3.85;;;0.98;;
58240;SDS011;45058;55.772;38.224;2023-05-20T09:25:35;12.75;;;1.40;;
58240;SDS011;45058;55.772;38.224;2023-05-20T09:28:03;3.55;;;1.30;;
58240;SDS011;45058;55.772;38.224;2023-05-20T09:30:30;11.90;;;1.70;;
58240;SDS011;45058;55.772;38.224;2023-05-20T09:32:57;0.70;;;0.40;;
58240;SDS011;45058;55.772;38.224;2023-05-20T09:35:26;6.07;;;1.30;;
58240;SDS011;45058;55.772;38.224;2023-05-20T09:37:53;9.50;;;1.20;;
58240;SDS011;45058;55.772;38.224;2023-05-20T09:40:22;6.97;;;1.50;;
58240;SDS011;45058;55.772;38.224;2023-05-20T09:43:01;6.15;;;2.03;;
58240;SDS011;45058;55.772;38.224;2023-05-20T09:45:28;4.22;;;1.48;;
58240;SDS011;45058;55.772;38.224;2023-05-20T09:47:55;3.70;;;1.40;;
58240;SDS011;45058;55.772;38.224;2023-05-20T09:50:22;2.80;;;1.20;;
58240;SDS011;45058;55.772;38.224;2023-05-20T09:52:50;2.72;;;0.93;;
58240;SDS011;45058;55.772;38.224;2023-05-20T09:55:17;4.13;;;0.90;;
58240;SDS011;45058;55.772;38.224;2023-05-20T09:57:44;1.92;;;0.80;;
58240;SDS011;45058;55.772;38.224;2023-05-20T10:00:12;3.05;;;1.17;;
58240;SDS011;45058;55.772;38.224;2023-05-20T10:02:42;3.85;;;1.20;;
58240;SDS011;45058;55.772;38.224;2023-05-20T10:05:11;1.83;;;0.98;;
58240;SDS011;45058;55.772;38.224;2023-05-20T10:19:11;4.45;;;1.40;;
58240;SDS011;45058;55.772;38.224;2023-05-20T10:21:55;5.30;;;1.50;;
58240;SDS011;45058;55.772;38.224;2023-05-20T10:24:33;14.82;;;1.77;;
58240;SDS011;45058;55.772;38.224;2023-05-20T10:27:09;9.95;;;1.23;;
58240;SDS011;45058;55.772;38.224;2023-05-20T10:32:22;6.85;;;1.13;;
58240;SDS011;45058;55.772;38.224;2023-05-20T10:34:49;15.50;;;1.42;;
58240;SDS011;45058;55.772;38.224;2023-05-20T10:37:25;2.75;;;1.00;;
58240;SDS011;45058;55.772;38.224;2023-05-20T10:40:02;4.15;;;1.25;;
58240;SDS011;45058;55.772;38.224;2023-05-20T10:42:32;6.50;;;1.58;;
58240;SDS011;45058;55.772;38.224;2023-05-20T10:44:58;46.25;;;3.10;;
58240;SDS011;45058;55.772;38.224;2023-05-20T10:47:25;7.18;;;1.60;;
58240;SDS011;45058;55.772;38.224;2023-05-20T10:49:51;5.60;;;1.45;;
58240;SDS011;45058;55.772;38.224;2023-05-20T10:52:17;7.10;;;1.40;;
58240;SDS011;45058;55.772;38.224;2023-05-20T10:54:57;6.20;;;2.03;;
58240;SDS011;45058;55.772;38.224;2023-05-20T10:57:27;12.13;;;1.45;;
58240;SDS011;45058;55.772;38.224;2023-05-20T10:59:54;7.07;;;1.35;;
58240;SDS011;45058;55.772;38.224;2023-05-20T11:02:21;7.90;;;1.50;;
58240;SDS011;45058;55.772;38.224;2023-05-20T11:04:56;7.90;;;1.48;;
58240;SDS011;45058;55.772;38.224;2023-05-20T11:07:27;8.05;;;1.30;;
58240;SDS011;45058;55.772;38.224;2023-05-20T11:09:55;4.40;;;1.45;;
58240;SDS011;45058;55.772;38.224;2023-05-20T11:12:24;3.70;;;1.20;;
58240;SDS011;45058;55.772;38.224;2023-05-20T11:14:51;7.65;;;1.55;;
58240;SDS011;45058;55.772;38.224;2023-05-20T11:17:18;5.85;;;1.60;;
58240;SDS011;45058;55.772;38.224;2023-05-20T11:19:45;5.65;;;1.65;;
58240;SDS011;45058;55.772;38.224;2023-05-20T11:22:12;3.53;;;1.10;;
58240;SDS011;45058;55.772;38.224;2023-05-20T11:24:38;6.43;;;1.30;;
58240;SDS011;45058;55.772;38.224;2023-05-20T11:27:05;2.78;;;1.30;;
58240;SDS011;45058;55.772;38.224;2023-05-20T11:29:43;6.53;;;1.67;;
58240;SDS011;45058;55.772;38.224;2023-05-20T11:32:09;5.22;;;1.38;;
58240;SDS011;45058;55.772;38.224;2023-05-20T11:34:36;4.68;;;1.05;;
58240;SDS011;45058;55.772;38.224;2023-05-20T11:37:07;3.80;;;1.20;;
58240;SDS011;45058;55.772;38.224;2023-05-20T11:39:34;3.03;;;1.35;;
58240;SDS011;45058;55.772;38.224;2023-05-20T11:42:00;2.42;;;1.23;;
58240;SDS011;45058;55.772;38.224;2023-05-20T11:44:27;6.22;;;1.00;;
58240;SDS011;45058;55.772;38.224;2023-05-20T11:46:58;8.73;;;1.60;;
58240;SDS011;45058;55.772;38.224;2023-05-20T11:49:26;5.35;;;1.20;;
58240;SDS011;45058;55.772;38.224;2023-05-20T11:52:06;4.95;;;1.88;;
58240;SDS011;45058;55.772;38.224;2023-05-20T11:54:34;7.72;;;1.30;;
58240;SDS011;45058;55.772;38.224;2023-05-20T11:57:00;4.55;;;1.00;;
58240;SDS011;45058;55.772;38.224;2023-05-20T11:59:27;5.18;;;1.33;;
58240;SDS011;45058;55.772;38.224;2023-05-20T12:01:54;5.03;;;1.20;;
58240;SDS011;45058;55.772;38.224;2023-05-20T12:04:20;14.88;;;1.33;;
58240;SDS011;45058;55.772;38.224;2023-05-20T12:06:47;4.30;;;1.10;;
58240;SDS011;45058;55.772;38.224;2023-05-20T12:09:13;3.55;;;1.30;;
58240;SDS011;45058;55.772;38.224;2023-05-20T12:11:39;2.78;;;1.25;;
58240;SDS011;45058;55.772;38.224;2023-05-20T12:14:06;5.82;;;1.63;;
58240;SDS011;45058;55.772;38.224;2023-05-20T12:16:32;11.05;;;1.50;;
58240;SDS011;45058;55.772;38.224;2023-05-20T12:19:00;9.10;;;1.30;;
58240;SDS011;45058;55.772;38.224;2023-05-20T12:21:29;41.20;;;3.72;;
58240;SDS011;45058;55.772;38.224;2023-05-20T12:23:57;24.50;;;1.88;;
58240;SDS011;45058;55.772;38.224;2023-05-20T12:26:24;8.75;;;1.40;;
58240;SDS011;45058;55.772;38.224;2023-05-20T12:28:52;11.30;;;1.90;;
58240;SDS011;45058;55.772;38.224;2023-05-20T12:31:19;12.30;;;1.85;;
58240;SDS011;45058;55.772;38.224;2023-05-20T12:33:45;9.13;;;1.67;;
58240;SDS011;45058;55.772;38.224;2023-05-20T12:36:11;9.70;;;1.95;;
58240;SDS011;45058;55.772;38.224;2023-05-20T12:38:38;7.95;;;1.10;;
58240;SDS011;45058;55.772;38.224;2023-05-20T12:41:05;5.85;;;1.33;;
58240;SDS011;45058;55.772;38.224;2023-05-20T12:43:31;1.92;;;1.20;;
58240;SDS011;45058;55.772;38.224;2023-05-20T12:45:57;2.92;;;1.65;;
58240;SDS011;45058;55.772;38.224;2023-05-20T12:48:23;15.13;;;2.28;;
58240;SDS011;45058;55.772;38.224;2023-05-20T12:50:49;5.25;;;1.40;;
58240;SDS011;45058;55.772;38.224;2023-05-20T12:53:15;3.40;;;1.45;;
58240;SDS011;45058;55.772;38.224;2023-05-20T12:55:41;3.92;;;1.48;;
58240;SDS011;45058;55.772;38.224;2023-05-20T12:58:07;25.00;;;3.92;;
58240;SDS011;45058;55.772;38.224;2023-05-20T13:00:34;14.88;;;9.38;;
58240;SDS011;45058;55.772;38.224;2023-05-20T13:03:00;8.57;;;1.85;;
58240;SDS011;45058;55.772;38.224;2023-05-20T13:05:28;4.82;;;2.15;;
58240;SDS011;45058;55.772;38.224;2023-05-20T13:07:54;5.57;;;1.70;;
58240;SDS011;45058;55.772;38.224;2023-05-20T13:10:20;4.90;;;1.92;;
58240;SDS011;45058;55.772;38.224;2023-05-20T13:12:47;6.28;;;2.10;;
58240;SDS011;45058;55.772;38.224;2023-05-20T13:15:13;4.32;;;2.58;;
58240;SDS011;45058;55.772;38.224;2023-05-20T13:17:40;4.75;;;1.95;;
58240;SDS011;45058;55.772;38.224;2023-05-20T13:20:08;3.20;;;1.65;;
58240;SDS011;45058;55.772;38.224;2023-05-20T13:22:35;5.25;;;1.60;;
58240;SDS011;45058;55.772;38.224;2023-05-20T13:25:02;11.15;;;1.98;;
58240;SDS011;45058;55.772;38.224;2023-05-20T13:27:29;5.43;;;1.42;;
58240;SDS011;45058;55.772;38.224;2023-05-20T13:29:55;2.58;;;1.30;;
58240;SDS011;45058;55.772;38.224;2023-05-20T13:32:22;3.47;;;1.40;;
58240;SDS011;45058;55.772;38.224;2023-05-20T13:34:48;5.68;;;1.88;;
58240;SDS011;45058;55.772;38.224;2023-05-20T13:37:14;10.75;;;1.80;;
58240;SDS011;45058;55.772;38.224;2023-05-20T13:39:40;12.80;;;1.90;;
58240;SDS011;45058;55.772;38.224;2023-05-20T13:42:06;3.92;;;1.88;;
58240;SDS011;45058;55.772;38.224;2023-05-20T13:44:32;5.30;;;1.70;;
58240;SDS011;45058;55.772;38.224;2023-05-20T13:46:59;8.60;;;2.05;;
58240;SDS011;45058;55.772;38.224;2023-05-20T13:49:25;38.42;;;5.30;;
58240;SDS011;45058;55.772;38.224;2023-05-20T13:51:51;8.45;;;2.08;;
58240;SDS011;45058;55.772;38.224;2023-05-20T13:54:18;12.82;;;2.55;;
58240;SDS011;45058;55.772;38.224;2023-05-20T13:56:45;7.05;;;2.03;;
58240;SDS011;45058;55.772;38.224;2023-05-20T13:59:12;4.55;;;1.90;;
58240;SDS011;45058;55.772;38.224;2023-05-20T14:01:38;6.07;;;2.05;;
58240;SDS011;45058;55.772;38.224;2023-05-20T14:04:10;7.57;;;1.80;;
58240;SDS011;45058;55.772;38.224;2023-05-20T14:06:37;5.05;;;2.00;;
58240;SDS011;45058;55.772;38.224;2023-05-20T14:09:04;12.60;;;2.20;;
58240;SDS011;45058;55.772;38.224;2023-05-20T14:11:31;4.13;;;1.60;;
58240;SDS011;45058;55.772;38.224;2023-05-20T14:13:57;6.32;;;1.52;;
58240;SDS011;45058;55.772;38.224;2023-05-20T14:16:23;3.05;;;1.60;;
58240;SDS011;45058;55.772;38.224;2023-05-20T14:18:49;3.25;;;1.70;;
58240;SDS011;45058;55.772;38.224;2023-05-20T14:21:15;4.50;;;2.22;;
58240;SDS011;45058;55.772;38.224;2023-05-20T14:23:41;8.23;;;2.47;;
58240;SDS011;45058;55.772;38.224;2023-05-20T14:26:09;3.53;;;1.98;;
58240;SDS011;45058;55.772;38.224;2023-05-20T14:28:35;6.35;;;2.50;;
58240;SDS011;45058;55.772;38.224;2023-05-20T14:31:02;9.40;;;2.75;;
58240;SDS011;45058;55.772;38.224;2023-05-20T14:33:28;12.60;;;2.00;;
58240;SDS011;45058;55.772;38.224;2023-05-20T14:35:54;5.90;;;2.97;;
58240;SDS011;45058;55.772;38.224;2023-05-20T14:38:20;2.55;;;1.75;;
58240;SDS011;45058;55.772;38.224;2023-05-20T14:40:47;14.50;;;3.10;;
58240;SDS011;45058;55.772;38.224;2023-05-20T14:43:13;4.72;;;2.00;;
58240;SDS011;45058;55.772;38.224;2023-05-20T14:45:39;12.00;;;2.67;;
58240;SDS011;45058;55.772;38.224;2023-05-20T14:48:05;6.78;;;1.92;;
58240;SDS011;45058;55.772;38.224;2023-05-20T14:50:31;5.97;;;1.73;;
58240;SDS011;45058;55.772;38.224;2023-05-20T14:52:57;14.15;;;2.80;;
58240;SDS011;45058;55.772;38.224;2023-05-20T14:55:23;6.38;;;1.92;;
58240;SDS011;45058;55.772;38.224;2023-05-20T14:57:49;26.63;;;3.08;;
58240;SDS011;45058;55.772;38.224;2023-05-20T15:00:16;5.63;;;2.42;;
58240;SDS011;45058;55.772;38.224;2023-05-20T15:02:42;8.85;;;2.30;;
58240;SDS011;45058;55.772;38.224;2023-05-20T15:05:08;9.27;;;2.17;;
58240;SDS011;45058;55.772;38.224;2023-05-20T15:07:36;8.95;;;2.08;;
58240;SDS011;45058;55.772;38.224;2023-05-20T15:10:03;13.02;;;7.55;;
58240;SDS011;45058;55.772;38.224;2023-05-20T15:12:29;11.50;;;3.13;;
58240;SDS011;45058;55.772;38.224;2023-05-20T15:14:56;9.82;;;3.97;;
58240;SDS011;45058;55.772;38.224;2023-05-20T15:17:22;9.13;;;2.53;;
58240;SDS011;45058;55.772;38.224;2023-05-20T15:19:48;6.07;;;2.13;;
58240;SDS011;45058;55.772;38.224;2023-05-20T15:22:14;9.88;;;2.38;;
58240;SDS011;45058;55.772;38.224;2023-05-20T15:24:40;7.45;;;2.78;;
58240;SDS011;45058;55.772;38.224;2023-05-20T15:27:06;4.90;;;2.53;;
58240;SDS011;45058;55.772;38.224;2023-05-20T15:29:32;33.83;;;20.92;;
58240;SDS011;45058;55.772;38.224;2023-05-20T15:31:58;24.67;;;18.77;;
58240;SDS011;45058;55.772;38.224;2023-05-20T15:34:25;9.18;;;4.82;;
58240;SDS011;45058;55.772;38.224;2023-05-20T15:36:51;9.40;;;3.85;;
58240;SDS011;45058;55.772;38.224;2023-05-20T15:39:18;8.25;;;2.63;;
58240;SDS011;45058;55.772;38.224;2023-05-20T15:41:44;8.90;;;6.18;;
58240;SDS011;45058;55.772;38.224;2023-05-20T15:44:12;3.65;;;2.13;;
58240;SDS011;45058;55.772;38.224;2023-05-20T15:46:38;7.18;;;2.85;;
58240;SDS011;45058;55.772;38.224;2023-05-20T15:49:05;10.98;;;2.78;;
58240;SDS011;45058;55.772;38.224;2023-05-20T15:51:31;10.48;;;5.25;;
58240;SDS011;45058;55.772;38.224;2023-05-20T15:53:57;7.97;;;2.28;;
58240;SDS011;45058;55.772;38.224;2023-05-20T15:56:23;10.65;;;3.90;;
58240;SDS011;45058;55.772;38.224;2023-05-20T15:58:49;10.13;;;5.13;;
58240;SDS011;45058;55.772;38.224;2023-05-20T16:01:16;11.30;;;3.88;;
58240;SDS011;45058;55.772;38.224;2023-05-20T16:03:42;14.27;;;4.35;;
58240;SDS011;45058;55.772;38.224;2023-05-20T16:06:08;44.65;;;32.33;;
58240;SDS011;45058;55.772;38.224;2023-05-20T16:08:36;14.77;;;9.07;;
58240;SDS011;45058;55.772;38.224;2023-05-20T16:11:03;13.50;;;7.35;;
58240;SDS011;45058;55.772;38.224;2023-05-20T16:13:29;9.65;;;3.45;;
58240;SDS011;45058;55.772;38.224;2023-05-20T16:15:57;12.45;;;6.30;;
58240;SDS011;45058;55.772;38.224;2023-05-20T16:18:24;8.75;;;4.32;;
58240;SDS011;45058;55.772;38.224;2023-05-20T16:20:53;7.22;;;4.25;;
58240;SDS011;45058;55.772;38.224;2023-05-20T16:23:20;11.32;;;5.47;;
58240;SDS011;45058;55.772;38.224;2023-05-20T16:25:46;9.93;;;6.30;;
58240;SDS011;45058;55.772;38.224;2023-05-20T16:28:12;8.98;;;4.00;;
58240;SDS011;45058;55.772;38.224;2023-05-20T16:30:38;13.10;;;4.32;;
58240;SDS011;45058;55.772;38.224;2023-05-20T16:33:05;8.95;;;4.80;;
58240;SDS011;45058;55.772;38.224;2023-05-20T16:35:32;9.63;;;3.53;;
58240;SDS011;45058;55.772;38.224;2023-05-20T16:37:59;9.77;;;4.68;;
58240;SDS011;45058;55.772;38.224;2023-05-20T16:40:25;10.45;;;3.60;;
58240;SDS011;45058;55.772;38.224;2023-05-20T16:42:51;5.93;;;3.10;;
58240;SDS011;45058;55.772;38.224;2023-05-20T16:45:17;7.40;;;3.20;;
58240;SDS011;45058;55.772;38.224;2023-05-20T16:47:43;10.73;;;2.83;;
58240;SDS011;45058;55.772;38.224;2023-05-20T16:50:10;4.95;;;3.20;;
58240;SDS011;45058;55.772;38.224;2023-05-20T16:52:36;9.25;;;3.90;;
58240;SDS011;45058;55.772;38.224;2023-05-20T16:55:03;7.65;;;3.78;;
58240;SDS011;45058;55.772;38.224;2023-05-20T16:57:33;7.47;;;3.70;;
58240;SDS011;45058;55.772;38.224;2023-05-20T16:59:59;7.50;;;4.05;;
58240;SDS011;45058;55.772;38.224;2023-05-20T17:02:26;5.13;;;3.30;;
58240;SDS011;45058;55.772;38.224;2023-05-20T17:09:46;11.82;;;5.40;;
58240;SDS011;45058;55.772;38.224;2023-05-20T17:12:12;8.00;;;4.70;;
58240;SDS011;45058;55.772;38.224;2023-05-20T17:14:38;7.90;;;4.10;;
58240;SDS011;45058;55.772;38.224;2023-05-20T17:17:05;10.10;;;4.70;;
58240;SDS011;45058;55.772;38.224;2023-05-20T17:19:35;6.47;;;3.97;;
58240;SDS011;45058;55.772;38.224;2023-05-20T17:22:01;7.43;;;3.85;;
58240;SDS011;45058;55.772;38.224;2023-05-20T17:24:27;8.75;;;4.80;;
58240;SDS011;45058;55.772;38.224;2023-05-20T17:26:53;12.63;;;4.38;;
58240;SDS011;45058;55.772;38.224;2023-05-20T17:29:20;7.45;;;4.57;;
58240;SDS011;45058;55.772;38.224;2023-05-20T17:31:46;10.10;;;5.40;;
58240;SDS011;45058;55.772;38.224;2023-05-20T17:34:16;12.88;;;7.15;;
58240;SDS011;45058;55.772;38.224;2023-05-20T17:36:42;14.60;;;7.63;;
58240;SDS011;45058;55.772;38.224;2023-05-20T17:39:09;14.25;;;9.57;;
58240;SDS011;45058;55.772;38.224;2023-05-20T17:41:35;14.05;;;8.82;;
58240;SDS011;45058;55.772;38.224;2023-05-20T17:44:01;12.35;;;7.00;;
58240;SDS011;45058;55.772;38.224;2023-05-20T17:46:27;14.40;;;7.97;;
58240;SDS011;45058;55.772;38.224;2023-05-20T17:48:53;13.85;;;9.48;;
58240;SDS011;45058;55.772;38.224;2023-05-20T17:51:21;23.52;;;14.02;;
58240;SDS011;45058;55.772;38.224;2023-05-20T17:53:47;17.75;;;11.15;;
58240;SDS011;45058;55.772;38.224;2023-05-20T17:56:14;11.23;;;7.65;;
58240;SDS011;45058;55.772;38.224;2023-05-20T17:58:40;11.43;;;7.57;;
58240;SDS011;45058;55.772;38.224;2023-05-20T18:01:09;13.07;;;7.80;;
58240;SDS011;45058;55.772;38.224;2023-05-20T18:03:35;14.38;;;8.30;;
58240;SDS011;45058;55.772;38.224;2023-05-20T18:06:05;11.27;;;6.50;;
58240;SDS011;45058;55.772;38.224;2023-05-20T18:08:33;8.15;;;5.68;;
58240;SDS011;45058;55.772;38.224;2023-05-20T18:11:03;11.25;;;6.07;;
58240;SDS011;45058;55.772;38.224;2023-05-20T18:13:29;12.38;;;6.95;;
58240;SDS011;45058;55.772;38.224;2023-05-20T18:15:55;12.32;;;7.07;;
58240;SDS011;45058;55.772;38.224;2023-05-20T18:18:23;12.55;;;7.47;;
58240;SDS011;45058;55.772;38.224;2023-05-20T18:20:49;13.25;;;9.25;;
58240;SDS011;45058;55.772;38.224;2023-05-20T18:23:16;14.93;;;9.60;;
58240;SDS011;45058;55.772;38.224;2023-05-20T18:25:43;16.35;;;9.77;;
58240;SDS011;45058;55.772;38.224;2023-05-20T18:28:09;15.88;;;8.75;;
58240;SDS011;45058;55.772;38.224;2023-05-20T18:30:40;18.02;;;8.82;;
58240;SDS011;45058;55.772;38.224;2023-05-20T18:33:07;14.55;;;10.43;;
58240;SDS011;45058;55.772;38.224;2023-05-20T18:35:33;19.08;;;11.15;;
58240;SDS011;45058;55.772;38.224;2023-05-20T18:38:00;21.40;;;10.32;;
58240;SDS011;45058;55.772;38.224;2023-05-20T18:40:27;18.67;;;10.20;;
58240;SDS011;45058;55.772;38.224;2023-05-20T18:42:53;20.67;;;11.82;;
58240;SDS011;45058;55.772;38.224;2023-05-20T18:45:21;19.23;;;9.75;;
58240;SDS011;45058;55.772;38.224;2023-05-20T18:47:50;17.30;;;10.65;;
58240;SDS011;45058;55.772;38.224;2023-05-20T18:50:18;16.13;;;9.88;;
58240;SDS011;45058;55.772;38.224;2023-05-20T18:52:44;13.73;;;8.32;;
58240;SDS011;45058;55.772;38.224;2023-05-20T18:55:10;17.92;;;9.93;;
58240;SDS011;45058;55.772;38.224;2023-05-20T18:57:36;14.80;;;8.73;;
58240;SDS011;45058;55.772;38.224;2023-05-20T19:00:03;15.13;;;9.00;;
58240;SDS011;45058;55.772;38.224;2023-05-20T19:02:32;11.88;;;7.75;;
58240;SDS011;45058;55.772;38.224;2023-05-20T19:04:59;11.75;;;8.10;;
58240;SDS011;45058;55.772;38.224;2023-05-20T19:07:26;13.27;;;8.07;;
58240;SDS011;45058;55.772;38.224;2023-05-20T19:09:52;10.68;;;7.60;;
58240;SDS011;45058;55.772;38.224;2023-05-20T19:12:19;13.02;;;8.90;;
58240;SDS011;45058;55.772;38.224;2023-05-20T19:14:45;18.13;;;8.73;;
58240;SDS011;45058;55.772;38.224;2023-05-20T19:17:12;13.23;;;8.50;;
58240;SDS011;45058;55.772;38.224;2023-05-20T19:19:38;17.48;;;9.20;;
58240;SDS011;45058;55.772;38.224;2023-05-20T19:22:04;13.13;;;9.05;;
58240;SDS011;45058;55.772;38.224;2023-05-20T19:24:31;18.50;;;9.80;;
58240;SDS011;45058;55.772;38.224;2023-05-20T19:26:58;17.90;;;9.27;;
58240;SDS011;45058;55.772;38.224;2023-05-20T19:29:28;15.45;;;10.25;;
58240;SDS011;45058;55.772;38.224;2023-05-20T19:31:56;14.90;;;10.48;;
58240;SDS011;45058;55.772;38.224;2023-05-20T19:34:22;18.50;;;11.13;;
58240;SDS011;45058;55.772;38.224;2023-05-20T19:36:49;15.40;;;10.73;;
58240;SDS011;45058;55.772;38.224;2023-05-20T19:39:15;13.07;;;9.30;;
58240;SDS011;45058;55.772;38.224;2023-05-20T19:41:41;12.73;;;8.63;;
58240;SDS011;45058;55.772;38.224;2023-05-20T19:44:07;14.85;;;9.20;;
58240;SDS011;45058;55.772;38.224;2023-05-20T19:46:34;13.98;;;8.75;;
58240;SDS011;45058;55.772;38.224;2023-05-20T19:49:01;16.95;;;9.15;;
58240;SDS011;45058;55.772;38.224;2023-05-20T19:51:27;19.33;;;9.32;;
58240;SDS011;45058;55.772;38.224;2023-05-20T19:53:53;14.88;;;8.98;;
58240;SDS011;45058;55.772;38.224;2023-05-20T19:56:20;12.25;;;7.78;;
58240;SDS011;45058;55.772;38.224;2023-05-20T19:58:48;11.52;;;7.90;;
58240;SDS011;45058;55.772;38.224;2023-05-20T20:01:16;10.55;;;6.57;;
58240;SDS011;45058;55.772;38.224;2023-05-20T20:03:43;11.95;;;7.60;;
58240;SDS011;45058;55.772;38.224;2023-05-20T20:06:10;10.57;;;6.63;;
58240;SDS011;45058;55.772;38.224;2023-05-20T20:08:37;10.70;;;5.80;;
58240;SDS011;45058;55.772;38.224;2023-05-20T20:11:06;11.02;;;6.80;;
58240;SDS011;45058;55.772;38.224;2023-05-20T20:13:32;10.65;;;6.43;;
58240;SDS011;45058;55.772;38.224;2023-05-20T20:15:58;8.73;;;5.85;;